Overview Statistics Trail Chart Weather Telemetry Raw packets
 

This is the latest recevied weather packets stored in our database for station/object EA2FBA-10. If no packets are shown the sender has not sent any weather packets the latest 10 day(s).

<< 4 5 6 7 8 9 10 >>
Time Temp. Humidity Pressure Rain* Wind** Luminosity Snow
1788549079 26.67° C 48% 960.3 hPa - - - -
1788548179 27.22° C 44% 960.1 hPa - - - -
1788547279 27.22° C 42% 959.4 hPa - - - -
1788546388 28.33° C 39% 959.1 hPa - - - -
1788546379 28.33° C 39% 959.1 hPa - - - -
1788545478 28.89° C 36% 958.9 hPa - - - -
1788544590 29.44° C 34% 958.7 hPa - - - -
1788544578 29.44° C 34% 958.7 hPa - - - -
1788543678 30° C 32% 958.6 hPa - - - -
1788542788 30.56° C 31% 958.5 hPa - - - -
1788542778 30.56° C 31% 958.5 hPa - - - -
1788541888 31.11° C 30% 958.3 hPa - - - -
1788541878 31.11° C 30% 958.3 hPa - - - -
1788540987 31.67° C 30% 958.2 hPa - - - -
1788540978 31.67° C 30% 958.2 hPa - - - -
1788540078 31.11° C 30% 958.2 hPa - - - -
1788539190 30° C 31% 958.1 hPa - - - -
1788539178 30° C 31% 958.1 hPa - - - -
1788538278 31.67° C 28% 958.2 hPa - - - -
1788537378 31.67° C 28% 958.2 hPa - - - -
1788536477 32.22° C 25% 958.2 hPa - - - -
1788535587 32.78° C 24% 958.2 hPa - - - -
1788535577 32.78° C 24% 958.2 hPa - - - -
1788534687 31.67° C 26% 958.3 hPa - - - -
1788534677 31.67° C 26% 958.3 hPa - - - -

* Rain since midnight (hover to see other rain measurements)
** Current wind speed in m/s (hover to see current wind gust speed)